createdAt,value
2023-02-12T00:02:24.623Z,103468.50
2023-02-12T00:04:51.079Z,103462.53
2023-02-12T00:07:17.796Z,103465.81
2023-02-12T00:09:44.499Z,103471.97
2023-02-12T00:12:10.940Z,103482.94
2023-02-12T00:14:37.926Z,103486.91
2023-02-12T00:17:04.604Z,103478.72
2023-02-12T00:19:31.163Z,103488.03
2023-02-12T00:21:57.735Z,103487.75
2023-02-12T00:24:24.267Z,103495.78
2023-02-12T00:26:51.029Z,103496.47
2023-02-12T00:29:17.473Z,103496.13
2023-02-12T00:31:44.126Z,103500.38
2023-02-12T00:34:11.398Z,103497.09
2023-02-12T00:36:37.981Z,103495.72
2023-02-12T00:39:04.785Z,103488.59
2023-02-12T00:41:31.510Z,103500.91
2023-02-12T00:43:58.177Z,103499.44
2023-02-12T00:46:24.738Z,103501.03
2023-02-12T00:48:51.544Z,103500.56
2023-02-12T00:51:17.964Z,103501.50
2023-02-12T00:53:44.405Z,103497.91
2023-02-12T00:56:10.838Z,103494.38
2023-02-12T00:58:37.273Z,103496.88
2023-02-12T01:01:03.789Z,103496.81
2023-02-12T01:03:30.319Z,103494.31
2023-02-12T01:05:57.743Z,103497.66
2023-02-12T01:08:24.563Z,103500.00
2023-02-12T01:10:59.429Z,103501.19
2023-02-12T01:13:26.850Z,103509.28
2023-02-12T01:16:03.842Z,103513.69
2023-02-12T01:18:30.585Z,103514.38
2023-02-12T01:20:58.958Z,103513.13
2023-02-12T01:23:25.707Z,103516.59
2023-02-12T01:25:52.606Z,103509.75
2023-02-12T01:28:19.400Z,103511.38
2023-02-12T01:30:46.018Z,103514.78
2023-02-12T01:33:12.483Z,103506.94
2023-02-12T01:35:39.200Z,103510.75
2023-02-12T01:38:05.702Z,103505.06
2023-02-12T01:40:32.132Z,103516.22
2023-02-12T01:43:01.637Z,103508.72
2023-02-12T01:45:41.116Z,103514.72
2023-02-12T01:48:08.066Z,103510.34
2023-02-12T01:50:34.585Z,103502.75
2023-02-12T01:53:01.069Z,103513.78
2023-02-12T01:55:27.800Z,103515.66
2023-02-12T01:57:54.250Z,103510.44
2023-02-12T02:00:23.605Z,103516.13
2023-02-12T02:02:54.100Z,103510.19
2023-02-12T02:05:31.587Z,103507.41
2023-02-12T02:07:58.177Z,103503.31
2023-02-12T02:10:24.882Z,103502.06
2023-02-12T02:13:09.947Z,103510.91
2023-02-12T02:15:37.115Z,103499.50
2023-02-12T02:18:21.768Z,103507.66
2023-02-12T02:21:06.273Z,103505.91
2023-02-12T02:23:59.480Z,103500.28
2023-02-12T02:26:32.587Z,103500.53
2023-02-12T02:29:21.211Z,103498.22
2023-02-12T02:31:56.810Z,103498.50
2023-02-12T02:34:34.457Z,103498.34
2023-02-12T02:37:14.036Z,103498.81
2023-02-12T02:39:56.224Z,103498.13
2023-02-12T02:42:45.604Z,103497.56
2023-02-12T02:45:26.153Z,103497.28
2023-02-12T02:48:00.500Z,103491.72
2023-02-12T02:50:28.704Z,103496.34
2023-02-12T02:53:01.333Z,103493.38
2023-02-12T02:55:32.522Z,103489.78
2023-02-12T02:58:02.860Z,103480.91
2023-02-12T03:00:37.368Z,103492.84
2023-02-12T03:03:43.761Z,103488.16
2023-02-12T03:06:23.685Z,103496.00
2023-02-12T03:08:55.088Z,103499.06
2023-02-12T03:11:27.938Z,103498.50
2023-02-12T03:13:59.618Z,103501.81
2023-02-12T03:16:30.887Z,103499.91
2023-02-12T03:19:08.453Z,103505.47
2023-02-12T03:21:43.442Z,103500.47
2023-02-12T03:24:19.368Z,103497.41
2023-02-12T03:26:50.020Z,103502.50
2023-02-12T03:29:16.717Z,103505.41
2023-02-12T03:32:07.497Z,103511.41
2023-02-12T03:34:59.292Z,103513.50
2023-02-12T03:37:32.249Z,103517.06
2023-02-12T03:40:35.326Z,103518.09
2023-02-12T03:43:10.764Z,103512.66
2023-02-12T03:45:43.513Z,103514.47
2023-02-12T03:48:33.995Z,103522.09
2023-02-12T03:51:04.941Z,103512.25
2023-02-12T03:53:31.917Z,103519.03
2023-02-12T03:56:11.938Z,103520.56
2023-02-12T03:58:38.950Z,103525.16
2023-02-12T04:01:05.962Z,103524.88
2023-02-12T04:03:32.672Z,103535.84
2023-02-12T04:05:59.138Z,103531.50
2023-02-12T04:08:27.467Z,103534.19
2023-02-12T04:11:20.856Z,103533.56
2023-02-12T04:14:13.041Z,103534.34
2023-02-12T04:16:52.520Z,103534.66
2023-02-12T04:19:29.517Z,103535.47
2023-02-12T04:22:18.215Z,103536.84
2023-02-12T04:25:03.944Z,103539.50
2023-02-12T04:27:58.419Z,103537.00
2023-02-12T04:30:32.498Z,103530.19
2023-02-12T04:33:07.781Z,103541.31
2023-02-12T04:36:01.514Z,103530.72
2023-02-12T04:38:36.446Z,103537.16
2023-02-12T04:41:05.734Z,103534.00
2023-02-12T04:43:37.505Z,103538.00
2023-02-12T04:46:05.847Z,103538.88
2023-02-12T04:48:32.572Z,103538.56
2023-02-12T04:50:58.993Z,103532.97
2023-02-12T04:53:25.723Z,103534.75
2023-02-12T04:55:52.302Z,103541.03
2023-02-12T04:58:19.348Z,103534.84
2023-02-12T05:00:45.727Z,103533.06
2023-02-12T05:03:12.444Z,103539.34
2023-02-12T05:05:38.856Z,103536.38
2023-02-12T05:08:05.376Z,103533.72
2023-02-12T05:10:31.766Z,103522.91
2023-02-12T05:12:58.206Z,103527.31
2023-02-12T05:15:24.694Z,103531.09
2023-02-12T05:17:51.297Z,103528.13
2023-02-12T05:20:17.905Z,103530.94
2023-02-12T05:22:44.473Z,103529.13
2023-02-12T05:25:11.868Z,103531.56
2023-02-12T05:27:38.509Z,103529.44
2023-02-12T05:30:06.104Z,103530.53
2023-02-12T05:32:32.823Z,103538.53
2023-02-12T05:34:59.229Z,103532.13
2023-02-12T05:37:26.016Z,103548.00
2023-02-12T05:39:52.464Z,103537.97
2023-02-12T05:42:18.947Z,103540.72
2023-02-12T05:44:45.372Z,103540.00
2023-02-12T05:47:12.056Z,103542.34
2023-02-12T05:49:38.605Z,103545.38
2023-02-12T05:52:05.115Z,103547.88
2023-02-12T05:54:31.718Z,103542.25
2023-02-12T05:56:58.152Z,103535.69
2023-02-12T05:59:24.587Z,103550.19
2023-02-12T06:01:52.034Z,103559.84
2023-02-12T06:04:23.481Z,103561.69
2023-02-12T06:06:50.907Z,103567.63
2023-02-12T06:09:17.379Z,103573.69
2023-02-12T06:11:44.046Z,103568.13
2023-02-12T06:14:14.144Z,103572.47
2023-02-12T06:16:40.827Z,103570.88
2023-02-12T06:19:07.493Z,103566.94
2023-02-12T06:21:34.189Z,103572.78
2023-02-12T06:24:01.303Z,103571.16
2023-02-12T06:26:27.972Z,103565.56
2023-02-12T06:28:54.516Z,103569.00
2023-02-12T06:31:24.484Z,103572.25
2023-02-12T06:33:52.163Z,103572.19
2023-02-12T06:36:19.061Z,103578.97
2023-02-12T06:38:45.669Z,103587.53
2023-02-12T06:41:12.352Z,103588.50
2023-02-12T06:43:39.027Z,103591.84
2023-02-12T06:46:05.884Z,103587.44
2023-02-12T06:48:32.353Z,103591.38
2023-02-12T06:51:16.308Z,103589.41
2023-02-12T06:53:43.263Z,103590.66
2023-02-12T06:56:11.665Z,103595.00
2023-02-12T06:58:44.049Z,103591.44
2023-02-12T07:01:25.332Z,103605.88
2023-02-12T07:03:54.716Z,103603.38
2023-02-12T07:06:22.025Z,103603.97
2023-02-12T07:08:48.855Z,103608.59
2023-02-12T07:11:15.677Z,103615.50
2023-02-12T07:13:42.617Z,103618.13
2023-02-12T07:16:11.742Z,103623.00
2023-02-12T07:18:38.771Z,103619.75
2023-02-12T07:21:06.553Z,103619.91
2023-02-12T07:23:33.944Z,103628.81
2023-02-12T07:26:03.907Z,103617.41
2023-02-12T07:28:33.965Z,103626.13
2023-02-12T07:31:14.709Z,103627.09
2023-02-12T07:33:41.683Z,103631.63
2023-02-12T07:36:11.581Z,103628.72
2023-02-12T07:38:39.938Z,103639.81
2023-02-12T07:41:17.000Z,103638.34
2023-02-12T07:43:45.033Z,103633.44
2023-02-12T07:46:14.616Z,103638.50
2023-02-12T07:48:41.192Z,103644.56
2023-02-12T07:51:10.352Z,103641.19
2023-02-12T07:53:37.533Z,103650.47
2023-02-12T07:56:13.466Z,103650.09
2023-02-12T07:58:41.410Z,103651.69
2023-02-12T08:01:15.260Z,103653.16
2023-02-12T08:03:42.007Z,103656.56
2023-02-12T08:06:13.711Z,103654.47
2023-02-12T08:08:40.440Z,103655.91
2023-02-12T08:11:08.380Z,103652.34
2023-02-12T08:13:36.088Z,103661.00
2023-02-12T08:16:04.795Z,103662.88
2023-02-12T08:18:32.623Z,103661.81
2023-02-12T08:21:09.363Z,103660.13
2023-02-12T08:23:35.940Z,103658.22
2023-02-12T08:26:09.208Z,103669.22
2023-02-12T08:28:36.095Z,103675.97
2023-02-12T08:31:04.035Z,103685.94
2023-02-12T08:33:30.878Z,103672.88
2023-02-12T08:36:06.344Z,103680.81
2023-02-12T08:38:33.571Z,103680.31
2023-02-12T08:41:05.361Z,103685.66
2023-02-12T08:43:31.873Z,103680.66
2023-02-12T08:46:06.436Z,103690.47
2023-02-12T08:48:33.360Z,103680.66
2023-02-12T08:51:13.462Z,103684.78
2023-02-12T08:53:41.411Z,103678.44
2023-02-12T08:56:08.593Z,103688.94
2023-02-12T08:58:36.090Z,103692.22
2023-02-12T09:01:03.693Z,103690.72
2023-02-12T09:03:30.680Z,103689.47
2023-02-12T09:05:57.521Z,103691.78
2023-02-12T09:08:24.474Z,103694.13
2023-02-12T09:10:50.884Z,103696.00
2023-02-12T09:13:17.301Z,103696.72
2023-02-12T09:15:45.129Z,103697.09
2023-02-12T09:18:12.742Z,103707.59
2023-02-12T09:20:41.203Z,103705.59
2023-02-12T09:23:09.253Z,103711.13
2023-02-12T09:25:40.004Z,103709.97
2023-02-12T09:28:06.454Z,103709.25
2023-02-12T09:30:33.080Z,103713.75
2023-02-12T09:32:59.670Z,103722.94
2023-02-12T09:35:26.279Z,103718.41
2023-02-12T09:37:53.359Z,103717.13
2023-02-12T09:40:41.129Z,103712.78
2023-02-12T09:43:42.653Z,103714.97
2023-02-12T09:46:31.798Z,103725.03
2023-02-12T09:49:11.410Z,103728.28
2023-02-12T09:51:39.465Z,103730.38
2023-02-12T09:54:08.076Z,103730.47
2023-02-12T09:56:37.428Z,103728.88
2023-02-12T09:59:08.714Z,103734.59
2023-02-12T10:01:36.326Z,103729.25
2023-02-12T10:04:05.332Z,103729.63
2023-02-12T10:06:36.997Z,103733.28
2023-02-12T10:09:21.974Z,103742.22
2023-02-12T10:12:03.578Z,103737.84
2023-02-12T10:14:54.983Z,103738.44
2023-02-12T10:17:46.223Z,103742.97
2023-02-12T10:20:22.093Z,103743.41
2023-02-12T10:23:07.730Z,103744.00
2023-02-12T10:25:54.136Z,103743.38
2023-02-12T10:28:41.860Z,103734.50
2023-02-12T10:31:35.200Z,103741.78
2023-02-12T10:34:05.923Z,103740.69
2023-02-12T10:36:48.066Z,103744.59
2023-02-12T10:39:20.520Z,103742.69
2023-02-12T10:42:06.405Z,103735.13
2023-02-12T10:44:32.850Z,103738.13
2023-02-12T10:46:59.416Z,103730.78
2023-02-12T10:49:26.370Z,103728.50
2023-02-12T10:52:27.380Z,103739.16
2023-02-12T10:54:53.860Z,103734.78
2023-02-12T10:57:26.489Z,103733.53
2023-02-12T10:59:55.230Z,103744.31
2023-02-12T11:02:23.768Z,103736.91
2023-02-12T11:04:51.002Z,103735.56
2023-02-12T11:07:17.891Z,103736.00
2023-02-12T11:09:49.412Z,103738.97
2023-02-12T11:12:36.291Z,103734.53
2023-02-12T11:15:04.933Z,103737.91
2023-02-12T11:17:37.825Z,103735.97
2023-02-12T11:20:16.575Z,103727.34
2023-02-12T11:22:58.627Z,103726.16
2023-02-12T11:25:28.540Z,103718.16
2023-02-12T11:28:04.474Z,103722.41
2023-02-12T11:30:31.663Z,103721.81
2023-02-12T11:33:24.813Z,103723.31
2023-02-12T11:36:00.976Z,103723.69
2023-02-12T11:38:37.023Z,103717.16
2023-02-12T11:41:21.365Z,103717.34
2023-02-12T11:43:48.008Z,103713.25
2023-02-12T11:46:20.423Z,103712.88
2023-02-12T11:48:47.500Z,103706.84
2023-02-12T11:51:25.142Z,103701.72
2023-02-12T11:53:53.450Z,103699.81
2023-02-12T11:56:20.784Z,103701.13
2023-02-12T11:58:48.765Z,103694.38
2023-02-12T12:01:22.556Z,103696.19
2023-02-12T12:04:04.640Z,103695.72
2023-02-12T12:06:50.893Z,103696.81
2023-02-12T12:09:40.013Z,103689.06
2023-02-12T12:12:06.473Z,103687.28
2023-02-12T12:14:56.241Z,103695.66
2023-02-12T12:17:44.805Z,103692.38
2023-02-12T12:20:16.218Z,103683.41
2023-02-12T12:23:00.773Z,103683.41
2023-02-12T12:25:33.166Z,103688.44
2023-02-12T12:28:18.040Z,103683.03
2023-02-12T12:31:09.151Z,103678.53
2023-02-12T12:33:51.829Z,103681.59
2023-02-12T12:36:24.454Z,103678.59
2023-02-12T12:39:12.213Z,103674.63
2023-02-12T12:41:56.949Z,103685.59
2023-02-12T12:44:44.738Z,103682.84
2023-02-12T12:47:15.620Z,103679.78
2023-02-12T12:50:21.194Z,103669.94
2023-02-12T12:52:52.036Z,103669.81
2023-02-12T12:55:27.862Z,103659.34
2023-02-12T12:58:07.023Z,103663.28
2023-02-12T13:00:45.355Z,103664.38
2023-02-12T13:03:30.070Z,103655.28
2023-02-12T13:06:17.892Z,103656.72
2023-02-12T13:09:03.718Z,103644.28
2023-02-12T13:11:34.616Z,103638.56
2023-02-12T13:14:14.989Z,103644.03
2023-02-12T13:17:03.683Z,103644.66
2023-02-12T13:19:39.178Z,103648.91
2023-02-12T13:22:26.434Z,103649.09
2023-02-12T13:25:04.519Z,103650.38
2023-02-12T13:27:35.349Z,103648.53
2023-02-12T13:30:06.321Z,103641.97
2023-02-12T13:32:36.661Z,103644.78
2023-02-12T13:35:05.409Z,103648.59
2023-02-12T13:37:45.239Z,103645.22
2023-02-12T13:40:18.076Z,103644.41
2023-02-12T13:43:15.906Z,103643.97
2023-02-12T13:45:56.133Z,103641.09
2023-02-12T13:48:34.790Z,103647.25
2023-02-12T13:51:14.996Z,103643.84
2023-02-12T13:54:02.669Z,103642.28
2023-02-12T13:56:41.412Z,103640.09
2023-02-12T13:59:32.790Z,103646.50
2023-02-12T14:02:02.392Z,103643.00
2023-02-12T14:04:34.152Z,103648.56
2023-02-12T14:07:11.012Z,103654.81
2023-02-12T14:09:59.893Z,103651.88
2023-02-12T14:12:26.334Z,103649.63
2023-02-12T14:14:55.639Z,103648.59
2023-02-12T14:17:28.031Z,103645.88
2023-02-12T14:20:06.881Z,103643.25
2023-02-12T14:22:57.315Z,103645.75
2023-02-12T14:25:23.685Z,103645.03
2023-02-12T14:27:50.583Z,103648.31
2023-02-12T14:30:16.951Z,103646.94
2023-02-12T14:32:55.852Z,103644.63
2023-02-12T14:35:34.247Z,103644.53
2023-02-12T14:38:03.011Z,103644.53
2023-02-12T14:40:36.556Z,103643.72
2023-02-12T14:43:05.089Z,103655.63
2023-02-12T14:45:37.864Z,103653.13
2023-02-12T14:48:05.070Z,103663.28
2023-02-12T14:50:38.886Z,103653.03
2023-02-12T14:53:24.069Z,103661.78
2023-02-12T14:55:51.683Z,103654.44
2023-02-12T14:58:20.591Z,103647.31
2023-02-12T15:00:49.125Z,103654.56
2023-02-12T15:03:25.108Z,103649.56
2023-02-12T15:05:58.346Z,103648.72
2023-02-12T15:08:42.639Z,103644.72
2023-02-12T15:11:28.149Z,103650.41
2023-02-12T15:14:00.493Z,103654.50
2023-02-12T15:16:35.145Z,103655.16
2023-02-12T15:19:13.655Z,103653.31
2023-02-12T15:21:40.813Z,103658.66
2023-02-12T15:24:12.450Z,103656.50
2023-02-12T15:26:45.280Z,103655.41
2023-02-12T15:29:30.799Z,103654.56
2023-02-12T15:31:59.211Z,103658.03
2023-02-12T15:34:29.063Z,103647.25
2023-02-12T15:36:57.855Z,103646.81
2023-02-12T15:39:25.261Z,103649.75
2023-02-12T15:41:52.210Z,103657.19
2023-02-12T15:44:21.641Z,103650.16
2023-02-12T15:47:12.230Z,103654.94
2023-02-12T15:49:40.505Z,103654.66
2023-02-12T15:52:20.302Z,103652.88
2023-02-12T15:54:47.920Z,103654.25
2023-02-12T15:57:21.602Z,103650.09
2023-02-12T15:59:57.171Z,103651.72
2023-02-12T16:02:29.477Z,103645.28
2023-02-12T16:04:56.950Z,103649.44
2023-02-12T16:07:24.680Z,103657.09
2023-02-12T16:09:53.704Z,103650.09
2023-02-12T16:12:22.673Z,103648.38
2023-02-12T16:14:50.540Z,103653.97
2023-02-12T16:17:26.173Z,103655.75
2023-02-12T16:20:00.967Z,103651.34
2023-02-12T16:22:37.176Z,103650.91
2023-02-12T16:25:05.243Z,103650.75
2023-02-12T16:27:33.904Z,103658.19
2023-02-12T16:30:03.673Z,103654.69
2023-02-12T16:32:42.634Z,103662.41
2023-02-12T16:35:14.852Z,103662.06
2023-02-12T16:37:44.384Z,103663.03
2023-02-12T16:40:21.525Z,103659.06
2023-02-12T16:42:47.881Z,103670.75
2023-02-12T16:45:26.533Z,103664.44
2023-02-12T16:48:12.998Z,103664.28
2023-02-12T16:50:46.388Z,103661.19
2023-02-12T16:53:30.011Z,103663.81
2023-02-12T16:55:56.966Z,103664.59
2023-02-12T16:58:25.059Z,103666.09
2023-02-12T17:00:52.239Z,103669.59
2023-02-12T17:03:19.275Z,103666.22
2023-02-12T17:05:46.113Z,103677.50
2023-02-12T17:08:15.011Z,103677.78
2023-02-12T17:10:41.621Z,103675.38
2023-02-12T17:13:09.212Z,103670.63
2023-02-12T17:15:43.693Z,103672.34
2023-02-12T17:18:11.462Z,103677.38
2023-02-12T17:20:38.613Z,103680.38
2023-02-12T17:23:05.250Z,103679.69
2023-02-12T17:25:32.265Z,103676.72
2023-02-12T17:27:59.015Z,103682.13
2023-02-12T17:30:26.750Z,103683.31
2023-02-12T17:32:53.239Z,103682.56
2023-02-12T17:35:19.644Z,103684.94
2023-02-12T17:37:47.799Z,103693.28
2023-02-12T17:40:14.550Z,103689.22
2023-02-12T17:42:41.032Z,103688.50
2023-02-12T17:45:07.967Z,103695.31
2023-02-12T17:47:39.836Z,103690.50
2023-02-12T17:50:11.710Z,103697.13
2023-02-12T17:52:38.268Z,103698.66
2023-02-12T17:55:05.559Z,103708.56
2023-02-12T17:57:32.173Z,103712.56
2023-02-12T17:59:58.723Z,103707.28
2023-02-12T18:02:25.393Z,103708.06
2023-02-12T18:04:51.859Z,103711.44
2023-02-12T18:07:18.553Z,103715.97
2023-02-12T18:09:45.072Z,103697.16
2023-02-12T18:12:11.669Z,103699.91
2023-02-12T18:14:38.266Z,103698.25
2023-02-12T18:17:04.689Z,103706.72
2023-02-12T18:19:32.817Z,103703.59
2023-02-12T18:21:59.280Z,103707.88
2023-02-12T18:24:25.801Z,103708.56
2023-02-12T18:26:52.390Z,103710.03
2023-02-12T18:29:18.929Z,103711.22
2023-02-12T18:31:45.562Z,103705.84
2023-02-12T18:34:12.676Z,103703.59
2023-02-12T18:36:39.376Z,103706.50
2023-02-12T18:39:05.826Z,103714.06
2023-02-12T18:41:33.136Z,103701.97
2023-02-12T18:43:59.812Z,103705.75
2023-02-12T18:46:28.852Z,103707.84
2023-02-12T18:48:55.643Z,103713.22
2023-02-12T18:51:25.048Z,103709.81
2023-02-12T18:53:56.265Z,103712.66
2023-02-12T18:56:23.096Z,103706.72
2023-02-12T18:58:54.808Z,103718.56
2023-02-12T19:01:21.364Z,103704.03
2023-02-12T19:03:50.657Z,103710.47
2023-02-12T19:06:17.133Z,103709.69
2023-02-12T19:08:43.686Z,103703.75
2023-02-12T19:11:11.549Z,103712.03
2023-02-12T19:13:38.318Z,103711.97
2023-02-12T19:16:10.503Z,103714.72
2023-02-12T19:18:37.360Z,103711.84
2023-02-12T19:21:08.603Z,103714.38
2023-02-12T19:23:35.528Z,103717.00
2023-02-12T19:26:07.997Z,103710.66
2023-02-12T19:28:35.112Z,103710.75
2023-02-12T19:31:24.054Z,103719.28
2023-02-12T19:33:54.766Z,103711.56
2023-02-12T19:36:21.500Z,103720.34
2023-02-12T19:38:48.450Z,103719.81
2023-02-12T19:41:17.556Z,103718.22
2023-02-12T19:43:44.638Z,103718.97
2023-02-12T19:46:18.837Z,103722.34
2023-02-12T19:48:47.398Z,103732.50
2023-02-12T19:51:20.190Z,103722.03
2023-02-12T19:53:47.662Z,103712.94
2023-02-12T19:56:15.417Z,103708.91
2023-02-12T19:58:42.391Z,103718.63
2023-02-12T20:01:17.284Z,103720.41
2023-02-12T20:03:44.564Z,103723.25
2023-02-12T20:06:14.198Z,103719.13
2023-02-12T20:08:41.701Z,103718.00
2023-02-12T20:11:15.561Z,103718.91
2023-02-12T20:13:42.616Z,103716.84
2023-02-12T20:16:18.214Z,103713.75
2023-02-12T20:18:45.870Z,103719.28
2023-02-12T20:21:20.785Z,103716.84
2023-02-12T20:23:47.413Z,103718.97
2023-02-12T20:26:14.680Z,103728.16
2023-02-12T20:28:42.860Z,103725.06
2023-02-12T20:31:22.413Z,103726.72
2023-02-12T20:33:53.778Z,103729.38
2023-02-12T20:36:20.286Z,103730.69
2023-02-12T20:38:51.843Z,103728.28
2023-02-12T20:41:18.515Z,103728.16
2023-02-12T20:43:45.251Z,103725.06
2023-02-12T20:46:17.608Z,103715.88
2023-02-12T20:48:44.533Z,103721.50
2023-02-12T20:51:13.601Z,103718.84
2023-02-12T20:53:40.827Z,103724.19
2023-02-12T20:56:16.149Z,103719.47
2023-02-12T20:58:46.500Z,103718.19
2023-02-12T21:01:35.196Z,103712.78
2023-02-12T21:04:06.571Z,103704.50
2023-02-12T21:06:33.579Z,103706.53
2023-02-12T21:09:01.316Z,103714.28
2023-02-12T21:11:28.911Z,103717.63
2023-02-12T21:14:02.261Z,103710.63
2023-02-12T21:16:38.008Z,103707.13
2023-02-12T21:19:04.854Z,103713.22
2023-02-12T21:21:34.913Z,103708.41
2023-02-12T21:24:03.190Z,103707.13
2023-02-12T21:26:31.276Z,103708.91
2023-02-12T21:28:59.712Z,103709.69
2023-02-12T21:31:28.764Z,103719.66
2023-02-12T21:33:56.446Z,103707.91
2023-02-12T21:36:25.904Z,103711.72
2023-02-12T21:38:52.938Z,103716.69
2023-02-12T21:41:25.101Z,103707.03
2023-02-12T21:43:58.219Z,103704.09
2023-02-12T21:46:26.205Z,103697.81
2023-02-12T21:48:54.080Z,103707.53
2023-02-12T21:51:23.645Z,103702.97
2023-02-12T21:53:53.774Z,103693.03
2023-02-12T21:56:20.905Z,103699.16
2023-02-12T21:58:48.517Z,103695.78
2023-02-12T22:01:35.399Z,103694.81
2023-02-12T22:04:02.667Z,103697.59
2023-02-12T22:06:29.087Z,103694.81
2023-02-12T22:08:59.952Z,103696.22
2023-02-12T22:11:27.474Z,103686.81
2023-02-12T22:13:55.743Z,103689.84
2023-02-12T22:16:25.057Z,103688.81
2023-02-12T22:18:57.558Z,103692.50
2023-02-12T22:21:25.965Z,103685.97
2023-02-12T22:23:53.174Z,103687.06
2023-02-12T22:26:22.363Z,103695.72
2023-02-12T22:28:50.816Z,103686.28
2023-02-12T22:31:22.898Z,103691.75
2023-02-12T22:33:50.789Z,103689.06
2023-02-12T22:36:18.110Z,103690.19
2023-02-12T22:38:45.043Z,103689.25
2023-02-12T22:41:11.484Z,103694.91
2023-02-12T22:43:39.480Z,103703.19
2023-02-12T22:46:07.172Z,103709.59
2023-02-12T22:48:33.877Z,103696.47
2023-02-12T22:51:00.386Z,103709.03
2023-02-12T22:53:27.171Z,103704.13
2023-02-12T22:55:53.766Z,103712.44
2023-02-12T22:58:20.196Z,103705.06
2023-02-12T23:00:46.677Z,103702.06
2023-02-12T23:03:13.085Z,103701.72
2023-02-12T23:05:39.552Z,103706.91
2023-02-12T23:08:06.387Z,103707.41
2023-02-12T23:10:32.891Z,103708.56
2023-02-12T23:12:59.428Z,103702.91
2023-02-12T23:15:25.905Z,103702.59
2023-02-12T23:17:52.644Z,103702.22
2023-02-12T23:20:19.282Z,103707.75
2023-02-12T23:22:45.959Z,103711.38
2023-02-12T23:25:12.394Z,103710.19
2023-02-12T23:27:39.195Z,103705.41
2023-02-12T23:30:06.291Z,103708.53
2023-02-12T23:32:32.685Z,103701.66
2023-02-12T23:34:59.098Z,103697.56
2023-02-12T23:37:25.632Z,103697.41
2023-02-12T23:39:52.076Z,103702.84
2023-02-12T23:42:19.056Z,103705.50
2023-02-12T23:44:45.639Z,103698.53
2023-02-12T23:47:12.080Z,103696.63
2023-02-12T23:49:38.893Z,103699.19
2023-02-12T23:52:05.317Z,103700.84
2023-02-12T23:54:31.852Z,103696.03
2023-02-12T23:56:58.329Z,103697.66
2023-02-12T23:59:25.467Z,103686.28
